Time;durP1;ratioP1;P1;durP2;ratioP2;P2;SDS_P1;SDS_P2;PMS_P1;PMS_P2;Temp;Humidity;BMP_temperature;BMP_pressure;BME280_temperature;BME280_humidity;BME280_pressure;Samples;Min_cycle;Max_cycle;Signal;HPM_P1;HPM_P2
2021/08/25 00:02:46;;;;;;;6.05;3.98;;;;;;;16.80;80.58;101010.41;2841294;84;21024;-63
2021/08/25 00:06:51;;;;;;;7.12;4.25;;;;;;;16.78;80.96;101011.05;2840978;84;21088;-62
2021/08/25 00:10:53;;;;;;;8.73;5.12;;;;;;;16.77;79.84;101012.05;2840666;84;21009;-62
2021/08/25 00:15:50;;;;;;;5.53;3.75;;;;;;;16.79;80.43;101011.41;2840772;84;21036;-62
2021/08/25 00:19:54;;;;;;;9.60;5.17;;;;;;;16.80;80.83;101005.03;2841131;84;21036;-63
2021/08/25 00:23:56;;;;;;;7.60;4.03;;;;;;;16.79;80.72;101000.66;2841379;84;21065;-61
2021/08/25 00:28:00;;;;;;;9.63;4.03;;;;;;;16.82;81.00;101003.90;2841160;84;21056;-63
2021/08/25 00:32:02;;;;;;;7.83;4.20;;;;;;;16.79;81.10;100997.97;2841035;83;21068;-62
2021/08/25 00:36:04;;;;;;;5.78;3.67;;;;;;;16.75;81.67;100997.41;2841214;84;21001;-62
2021/08/25 00:40:34;;;;;;;10.78;5.25;;;;;;;16.74;81.39;100994.38;2841356;84;20965;-62
2021/08/25 00:44:36;;;;;;;11.53;7.42;;;;;;;16.74;81.42;100993.55;2841089;84;21048;-63
2021/08/25 00:48:38;;;;;;;12.25;6.80;;;;;;;16.70;80.45;100991.17;2840693;82;21076;-63
2021/08/25 00:52:48;;;;;;;9.73;7.28;;;;;;;16.65;80.20;100989.91;2841305;84;21064;-62
2021/08/25 00:56:52;;;;;;;10.50;6.85;;;;;;;16.63;79.98;100979.31;2841138;84;21076;-62
2021/08/25 01:01:06;;;;;;;11.10;8.50;;;;;;;16.63;80.06;100982.50;2841165;83;21000;-62
2021/08/25 01:05:10;;;;;;;7.83;5.95;;;;;;;16.66;80.72;100973.63;2803805;83;21112;-63
2021/08/25 01:09:12;;;;;;;12.15;6.08;;;;;;;16.66;81.10;100978.17;2854319;83;21048;-62
2021/08/25 01:13:14;;;;;;;4.78;4.35;;;;;;;16.63;81.49;100981.99;2854189;82;21004;-62
2021/08/25 01:17:30;;;;;;;9.70;5.92;;;;;;;16.67;82.13;100981.20;2854188;83;20945;-62
2021/08/25 01:21:32;;;;;;;12.63;6.53;;;;;;;16.68;81.94;100977.53;2804132;84;21011;-62
2021/08/25 01:25:36;;;;;;;7.15;4.83;;;;;;;16.63;81.53;100975.28;2853541;83;21076;-62
2021/08/25 01:29:39;;;;;;;7.65;5.70;;;;;;;16.61;82.23;100969.73;2804003;85;21050;-63
2021/08/25 01:33:41;;;;;;;11.40;5.90;;;;;;;16.62;82.27;100966.88;2835256;83;21005;-62
2021/08/25 01:37:43;;;;;;;11.97;7.45;;;;;;;16.62;82.16;100966.05;2791249;85;20988;-62
2021/08/25 01:41:47;;;;;;;8.63;6.37;;;;;;;16.58;81.91;100953.88;2838787;84;20959;-62
2021/08/25 01:46:03;;;;;;;14.33;6.72;;;;;;;16.59;82.18;100952.89;2838561;84;21235;-62
2021/08/25 01:50:14;;;;;;;9.90;5.58;;;;;;;16.66;82.99;100948.63;2879224;82;21003;-62
2021/08/25 01:54:17;;;;;;;10.43;5.33;;;;;;;16.70;83.32;100954.05;2846680;83;21013;-62
2021/08/25 01:58:41;;;;;;;9.20;5.17;;;;;;;16.74;82.79;100954.08;2820909;84;21043;-62
2021/08/25 02:02:43;;;;;;;12.00;7.10;;;;;;;16.72;82.66;100950.70;2840729;83;20976;-62
2021/08/25 02:07:05;;;;;;;8.43;5.20;;;;;;;16.63;82.78;100947.59;2892185;82;20978;-62
2021/08/25 02:11:08;;;;;;;10.72;8.08;;;;;;;16.64;82.72;100944.73;2847773;83;21045;-63
2021/08/25 02:15:23;;;;;;;12.65;7.00;;;;;;;16.46;81.45;100937.12;2820865;84;21066;-61
2021/08/25 02:19:25;;;;;;;7.92;5.50;;;;;;;16.36;82.68;100939.38;2840355;83;21023;-62
2021/08/25 02:23:29;;;;;;;11.95;6.03;;;;;;;16.30;82.50;100927.03;2891819;82;21011;-62
2021/08/25 02:27:31;;;;;;;11.50;5.58;;;;;;;16.30;82.90;100927.03;2848413;83;21028;-63
2021/08/25 02:31:59;;;;;;;11.00;6.40;;;;;;;16.35;82.48;100920.72;2820906;84;20937;-62
2021/08/25 02:36:07;;;;;;;8.93;5.72;;;;;;;16.32;82.13;100920.53;2839778;84;21092;-64
2021/08/25 02:40:47;;;;;;;8.25;5.80;;;;;;;16.25;81.63;100917.59;2891967;82;21003;-62
2021/08/25 02:44:51;;;;;;;10.08;6.22;;;;;;;16.20;82.24;100921.19;2848150;83;21036;-62
2021/08/25 02:48:58;;;;;;;8.50;5.30;;;;;;;16.11;81.93;100909.53;2844589;82;21010;-63
2021/08/25 02:53:00;;;;;;;9.13;6.08;;;;;;;16.06;81.57;100911.78;2839504;83;20970;-63
2021/08/25 02:57:04;;;;;;;9.68;5.65;;;;;;;15.99;81.47;100914.71;2839583;83;20950;-62
2021/08/25 03:01:12;;;;;;;12.90;6.85;;;;;;;15.93;81.51;100916.64;2825204;83;20936;-63
2021/08/25 03:05:14;;;;;;;9.63;7.10;;;;;;;15.81;81.30;100907.38;2806949;82;21003;-63
2021/08/25 03:09:23;;;;;;;15.88;7.37;;;;;;;15.77;82.16;100907.33;2806319;84;21074;-65
2021/08/25 03:13:25;;;;;;;8.05;6.40;;;;;;;15.75;82.22;100904.43;2806424;83;20996;-62
2021/08/25 03:17:30;;;;;;;8.85;5.60;;;;;;;15.72;82.08;100897.51;2806593;84;20991;-57
2021/08/25 03:21:33;;;;;;;12.88;6.53;;;;;;;15.71;82.33;100891.80;2806298;84;20967;-58
2021/08/25 03:25:35;;;;;;;8.48;6.85;;;;;;;15.70;82.52;100892.31;2806626;84;21035;-57
2021/08/25 03:29:51;;;;;;;13.90;5.85;;;;;;;15.68;82.57;100892.09;2809329;84;21073;-56
2021/08/25 03:33:53;;;;;;;10.73;6.80;;;;;;;15.64;82.26;100886.19;2839252;84;21054;-57
2021/08/25 03:37:55;;;;;;;7.95;6.20;;;;;;;15.60;82.44;100881.25;2937812;80;20971;-58
2021/08/25 03:41:57;;;;;;;7.35;5.25;;;;;;;15.55;82.61;100872.30;2937879;79;21039;-58
2021/08/25 03:46:00;;;;;;;7.45;4.83;;;;;;;15.56;83.33;100872.16;2937702;80;21018;-59
2021/08/25 03:50:03;;;;;;;13.20;6.35;;;;;;;15.56;83.11;100873.50;2936311;81;21019;-58
2021/08/25 03:54:06;;;;;;;10.32;6.10;;;;;;;15.54;82.99;100866.09;2937329;81;21019;-57
2021/08/25 03:58:08;;;;;;;9.13;6.03;;;;;;;15.61;83.57;100865.52;2938166;80;21011;-59
2021/08/25 04:02:16;;;;;;;11.85;6.33;;;;;;;15.62;83.39;100863.18;2891749;81;21002;-58
2021/08/25 04:06:19;;;;;;;11.70;5.80;;;;;;;15.62;83.20;100868.55;2828444;84;20972;-58
2021/08/25 04:10:22;;;;;;;15.23;8.05;;;;;;;15.56;83.05;100865.94;2890471;81;21002;-58
2021/08/25 04:14:24;;;;;;;10.35;6.50;;;;;;;15.53;83.21;100869.77;2838943;82;21028;-57
2021/08/25 04:18:26;;;;;;;9.40;4.92;;;;;;;15.59;83.96;100875.03;2910234;81;20976;-57
2021/08/25 04:22:28;;;;;;;6.35;4.60;;;;;;;15.60;83.54;100865.16;2895359;81;20976;-57
2021/08/25 04:26:30;;;;;;;6.70;5.92;;;;;;;15.64;84.17;100862.05;2839179;84;21258;-58
2021/08/25 04:30:34;;;;;;;10.80;6.65;;;;;;;15.98;85.45;100854.83;2890911;81;21022;-57
2021/08/25 04:34:36;;;;;;;12.53;6.87;;;;;;;16.47;84.97;100854.23;2882033;81;20978;-58
2021/08/25 04:38:38;;;;;;;8.60;7.33;;;;;;;16.77;84.15;100855.73;2838983;84;21498;-58
2021/08/25 04:42:41;;;;;;;7.92;6.17;;;;;;;17.27;85.38;100855.70;2838999;84;21054;-60
2021/08/25 04:46:43;;;;;;;8.45;6.42;;;;;;;17.74;85.00;100849.64;2839826;83;20920;-58
2021/08/25 04:50:45;;;;;;;15.45;6.72;;;;;;;18.31;85.27;100845.56;2836652;84;21030;-58
2021/08/25 04:54:49;;;;;;;9.63;6.47;;;;;;;19.04;84.61;100846.38;2839550;84;20970;-58
2021/08/25 04:58:51;;;;;;;11.08;5.60;;;;;;;19.17;78.37;100846.73;2887125;82;20963;-58
2021/08/25 05:02:54;;;;;;;13.28;6.67;;;;;;;18.98;76.54;100847.89;2886270;82;20991;-59
2021/08/25 05:06:56;;;;;;;9.80;6.30;;;;;;;18.95;78.81;100846.36;2886840;82;20960;-60
2021/08/25 05:10:59;;;;;;;9.68;5.97;;;;;;;18.89;75.80;100840.30;2835500;83;21030;-57
2021/08/25 05:15:06;;;;;;;9.35;6.12;;;;;;;18.78;76.00;100842.81;2836224;84;21322;-58
2021/08/25 05:19:08;;;;;;;9.38;6.50;;;;;;;18.73;77.55;100836.23;2836142;84;21085;-58
2021/08/25 05:23:10;;;;;;;8.08;5.85;;;;;;;19.21;77.80;100839.98;2836103;84;21277;-58
2021/08/25 05:27:13;;;;;;;11.30;7.65;;;;;;;19.68;76.22;100835.70;2836552;84;20998;-58
2021/08/25 05:31:14;;;;;;;9.90;6.65;;;;;;;20.48;75.53;100835.73;2843458;84;20990;-59
2021/08/25 05:35:18;;;;;;;9.60;6.70;;;;;;;21.07;72.11;100833.52;2843355;84;20994;-60
2021/08/25 05:39:19;;;;;;;9.13;6.47;;;;;;;21.48;71.24;100827.72;2844271;83;21288;-57
2021/08/25 05:43:22;;;;;;;8.05;6.17;;;;;;;22.01;69.71;100821.41;2843930;83;20998;-57
2021/08/25 05:47:24;;;;;;;9.33;5.50;;;;;;;22.23;65.90;100823.64;2843293;84;21069;-59
2021/08/25 05:51:27;;;;;;;7.92;5.25;;;;;;;22.28;65.05;100818.16;2832903;83;21013;-58
2021/08/25 05:55:29;;;;;;;9.95;6.78;;;;;;;22.30;65.13;100815.60;2831806;83;20985;-57
2021/08/25 05:59:52;;;;;;;9.65;5.60;;;;;;;22.49;65.48;100813.34;2832013;84;20988;-59
2021/08/25 06:03:54;;;;;;;13.43;6.95;;;;;;;22.75;64.55;100811.92;2831608;84;21049;-58
2021/08/25 06:07:56;;;;;;;9.90;6.53;;;;;;;23.05;63.92;100814.50;2831828;84;20982;-60
2021/08/25 06:11:58;;;;;;;8.15;5.05;;;;;;;23.33;62.12;100816.41;2831624;84;20961;-58
2021/08/25 06:17:03;;;;;;;7.10;6.37;;;;;;;23.27;62.07;100814.48;2831815;84;21005;-58
2021/08/25 06:21:05;;;;;;;11.95;6.85;;;;;;;23.41;63.37;100809.48;2831860;84;21009;-58
2021/08/25 07:13:07;;;;;;;10.65;5.47;;;;;;;22.21;62.47;100779.65;2878890;81;21009;-58
2021/08/25 07:17:09;;;;;;;10.32;6.15;;;;;;;22.50;62.88;100779.78;2781003;85;21018;-58
2021/08/25 07:21:12;;;;;;;8.48;6.25;;;;;;;22.96;62.45;100770.39;2862329;82;21013;-59
2021/08/25 07:25:18;;;;;;;13.30;5.70;;;;;;;23.14;58.51;100756.86;2862984;83;21080;-58
2021/08/25 07:29:26;;;;;;;7.42;4.85;;;;;;;23.14;58.51;100756.86;2862598;83;21017;-58
2021/08/25 07:33:28;;;;;;;8.23;5.33;;;;;;;23.02;59.44;100755.22;2862803;83;20980;-58
2021/08/25 07:37:36;;;;;;;9.63;4.90;;;;;;;22.92;60.78;100748.24;2862758;83;21032;-57
2021/08/25 07:41:38;;;;;;;7.78;4.72;;;;;;;22.79;59.23;100739.98;2863076;82;20978;-59
2021/08/25 07:45:47;;;;;;;10.13;5.20;;;;;;;22.47;59.27;100734.91;2862764;82;21012;-58
2021/08/25 07:49:49;;;;;;;10.18;5.58;;;;;;;22.51;59.39;100736.23;2862906;82;20986;-59
2021/08/25 07:53:52;;;;;;;9.38;5.95;;;;;;;22.73;60.96;100719.94;2862599;83;21021;-58
2021/08/25 07:58:02;;;;;;;6.67;4.28;;;;;;;22.79;59.53;100724.56;2862143;83;21065;-58
2021/08/25 08:02:04;;;;;;;7.60;5.37;;;;;;;22.46;57.92;100729.67;2862599;83;20962;-58
2021/08/25 08:06:06;;;;;;;7.03;5.67;;;;;;;22.08;58.27;100723.45;2862533;83;21025;-59
2021/08/25 08:10:09;;;;;;;14.55;6.42;;;;;;;22.08;59.83;100718.03;2862420;82;21013;-60
2021/08/25 08:14:11;;;;;;;9.20;6.37;;;;;;;22.06;60.40;100716.04;2868985;82;20970;-59
2021/08/25 08:18:20;;;;;;;8.90;5.42;;;;;;;22.24;60.47;100711.53;2875030;82;21285;-58
2021/08/25 08:22:18;;;;;;;10.17;4.90;;;;;;;22.43;59.22;100704.31;2874678;83;20938;-60
2021/08/25 08:26:20;;;;;;;7.42;4.87;;;;;;;22.35;56.94;100705.28;2875402;82;20962;-60
2021/08/25 08:30:22;;;;;;;8.88;4.80;;;;;;;22.10;57.80;100702.42;2875256;82;21000;-59
2021/08/25 08:34:24;;;;;;;10.48;5.45;;;;;;;21.83;55.80;100699.44;2875480;82;20993;-58
2021/08/25 08:38:33;;;;;;;8.58;5.35;;;;;;;21.83;57.46;100704.85;2875609;82;21061;-57
2021/08/25 08:42:35;;;;;;;8.53;5.50;;;;;;;21.70;56.88;100695.20;2875774;83;21001;-60
2021/08/25 08:46:42;;;;;;;9.93;5.00;;;;;;;21.73;58.44;100688.05;2875627;83;21028;-59
2021/08/25 08:50:51;;;;;;;7.95;5.42;;;;;;;21.87;59.04;100676.03;2875726;82;20950;-59
2021/08/25 08:54:54;;;;;;;12.68;5.00;;;;;;;21.86;58.59;100664.88;2875704;83;21020;-61
2021/08/25 08:59:17;;;;;;;8.38;4.85;;;;;;;22.04;59.06;100664.43;2875692;82;20998;-58
2021/08/25 09:03:24;;;;;;;12.43;6.50;;;;;;;21.87;58.92;100660.61;2875660;83;20985;-58
2021/08/25 09:08:08;;;;;;;7.95;5.03;;;;;;;21.91;58.04;100656.52;2875637;82;21013;-58
2021/08/25 09:12:12;;;;;;;10.07;6.30;;;;;;;22.10;59.24;100650.96;2874733;83;20993;-58
2021/08/25 09:16:35;;;;;;;8.75;6.28;;;;;;;22.13;59.88;100643.47;2870560;82;21045;-57
2021/08/25 09:20:46;;;;;;;6.30;4.95;;;;;;;22.13;59.75;100641.63;2871491;82;20973;-58
2021/08/25 09:24:49;;;;;;;13.35;6.35;;;;;;;22.29;58.73;100628.31;2871350;82;21012;-57
2021/08/25 09:28:51;;;;;;;18.23;6.05;;;;;;;22.38;59.56;100618.17;2871662;82;20981;-57
2021/08/25 09:32:57;;;;;;;8.53;5.28;;;;;;;22.25;59.39;100620.27;2871529;82;20993;-58
2021/08/25 09:37:09;;;;;;;12.45;6.55;;;;;;;22.03;60.33;100614.00;2871771;82;20934;-59
2021/08/25 09:41:12;;;;;;;12.43;6.80;;;;;;;22.11;60.49;100610.65;2852184;83;21254;-59
2021/08/25 09:45:16;;;;;;;10.25;5.28;;;;;;;22.15;59.61;100603.48;2870910;83;20993;-58
2021/08/25 09:49:18;;;;;;;8.53;5.42;;;;;;;22.13;56.31;100597.42;2871588;82;21001;-59
2021/08/25 09:53:46;;;;;;;7.47;4.80;;;;;;;22.00;55.90;100594.08;2870954;82;21056;-59
2021/08/25 09:57:49;;;;;;;9.63;4.92;;;;;;;21.90;57.01;100585.75;2871625;82;20986;-59
2021/08/25 10:01:53;;;;;;;9.55;4.78;;;;;;;21.61;57.31;100586.17;2871232;82;21012;-60
2021/08/25 10:05:56;;;;;;;7.28;5.55;;;;;;;21.53;57.23;100573.59;2871257;82;21021;-60
2021/08/25 10:09:58;;;;;;;5.97;3.95;;;;;;;21.61;58.23;100575.34;2871805;82;21036;-62
2021/08/25 10:14:11;;;;;;;9.33;4.90;;;;;;;21.75;58.47;100567.41;2874246;82;20969;-58
2021/08/25 10:18:45;;;;;;;6.85;4.53;;;;;;;21.66;58.40;100562.09;2879678;82;21016;-59
2021/08/25 10:22:54;;;;;;;17.50;5.20;;;;;;;21.69;57.12;100556.83;2879858;82;21040;-60
2021/08/25 10:27:06;;;;;;;7.33;4.95;;;;;;;21.64;58.28;100554.66;2879946;82;21005;-59
2021/08/25 10:31:08;;;;;;;8.33;4.75;;;;;;;21.85;59.06;100541.36;2879571;82;20993;-58
2021/08/25 10:35:53;;;;;;;6.25;4.47;;;;;;;;;;2879988;82;21016;-57
2021/08/25 10:40:00;;;;;;;5.72;4.58;;;;;;;22.26;57.31;100514.91;2879609;82;20989;-62
2021/08/25 10:44:02;;;;;;;7.28;5.15;;;;;;;22.25;55.44;100499.16;2879798;82;21584;-59
2021/08/25 10:48:13;;;;;;;6.45;4.67;;;;;;;22.26;56.43;100491.88;2879304;82;21128;-58
2021/08/25 10:52:20;;;;;;;7.72;4.30;;;;;;;22.26;55.06;100481.05;2879553;82;21037;-59
2021/08/25 10:56:45;;;;;;;7.45;5.17;;;;;;;22.12;55.44;100470.64;2879868;82;21068;-57
2021/08/25 11:01:29;;;;;;;5.65;4.50;;;;;;;22.22;56.06;100470.30;2879479;82;21028;-58
2021/08/25 11:05:36;;;;;;;7.12;4.87;;;;;;;22.24;56.01;100463.63;2879755;82;21040;-57
2021/08/25 11:09:56;;;;;;;8.03;4.60;;;;;;;21.91;56.72;100445.80;2879588;82;20978;-57
2021/08/25 11:14:19;;;;;;;6.03;4.78;;;;;;;21.99;55.87;100436.69;2878485;82;20982;-58
2021/08/25 11:18:41;;;;;;;6.65;4.15;;;;;;;22.15;57.61;100432.83;2875739;83;21056;-57
2021/08/25 11:22:45;;;;;;;6.83;4.30;;;;;;;22.36;58.00;100421.08;2875765;82;21008;-58
2021/08/25 11:26:47;;;;;;;8.23;4.53;;;;;;;22.37;58.25;100415.44;2875906;83;21029;-59
2021/08/25 11:30:51;;;;;;;6.42;4.53;;;;;;;22.48;59.46;100410.00;2875755;82;20961;-57
2021/08/25 11:34:57;;;;;;;7.33;4.15;;;;;;;22.60;57.26;100407.56;2875942;82;20973;-58
2021/08/25 11:39:13;;;;;;;6.80;5.20;;;;;;;22.66;56.99;100401.33;2876153;83;20978;-60
2021/08/25 11:43:18;;;;;;;7.47;4.30;;;;;;;22.73;55.49;100388.30;2875971;82;20961;-61
2021/08/25 11:47:20;;;;;;;;;;;;;;;22.75;55.68;100380.80;2878525;82;20981;-59
2021/08/25 11:51:29;;;;;;;8.10;3.92;;;;;;;22.79;54.86;100375.28;2875930;82;20107;-60
2021/08/25 11:55:36;;;;;;;6.97;4.45;;;;;;;22.82;55.16;100362.69;2841991;83;21055;-59
2021/08/25 11:59:59;;;;;;;7.33;5.20;;;;;;;22.76;56.66;100359.42;2875807;82;21091;-57
2021/08/25 12:04:01;;;;;;;6.95;4.20;;;;;;;22.85;56.23;100352.78;2875632;82;20977;-59
2021/08/25 12:08:12;;;;;;;9.30;5.72;;;;;;;22.85;53.98;100347.36;2875904;82;20957;-57
2021/08/25 12:12:50;;;;;;;5.85;3.62;;;;;;;22.95;53.62;100343.70;2875556;82;21052;-58
2021/08/25 12:17:11;;;;;;;5.37;3.55;;;;;;;22.90;55.38;100337.26;2879089;82;21063;-58
2021/08/25 12:21:13;;;;;;;4.25;3.85;;;;;;;22.94;55.48;100327.12;2879336;82;21064;-59
2021/08/25 12:25:42;;;;;;;7.30;3.87;;;;;;;23.08;56.09;100317.66;2879664;82;21582;-57
2021/08/25 12:29:44;;;;;;;6.42;3.90;;;;;;;23.06;54.51;100313.78;2878536;82;21025;-58
2021/08/25 12:33:51;;;;;;;5.20;4.08;;;;;;;23.17;56.70;100312.86;2879415;82;20985;-58
2021/08/25 12:37:54;;;;;;;7.67;5.00;;;;;;;23.23;56.48;100302.01;2879230;82;21041;-58
2021/08/25 12:41:58;;;;;;;6.47;5.08;;;;;;;23.10;55.50;100296.06;2803299;85;21011;-59
2021/08/25 12:45:59;;;;;;;4.92;4.17;;;;;;;22.81;56.24;100300.02;2854573;82;21019;-58
2021/08/25 12:50:02;;;;;;;8.18;4.03;;;;;;;22.73;55.37;100296.97;2874651;83;21020;-61
2021/08/25 12:54:05;;;;;;;7.53;4.25;;;;;;;22.86;56.51;100299.37;2874501;82;21292;-63
2021/08/25 12:58:07;;;;;;;7.80;4.55;;;;;;;22.94;57.37;100290.51;2873962;83;20954;-67
2021/08/25 13:02:11;;;;;;;6.62;3.60;;;;;;;23.03;56.48;100280.83;2757412;84;21046;-63
2021/08/25 13:06:12;;;;;;;5.87;3.70;;;;;;;23.02;56.49;100271.02;2806243;84;20944;-64
2021/08/25 13:10:14;;;;;;;7.58;4.28;;;;;;;23.18;58.32;100261.62;2805637;84;21026;-62
2021/08/25 13:14:24;;;;;;;5.03;4.47;;;;;;;23.32;55.79;100263.31;2825423;84;20986;-63
2021/08/25 13:18:26;;;;;;;5.45;3.95;;;;;;;23.31;54.11;100253.50;2829863;83;21261;-65
2021/08/25 13:22:49;;;;;;;6.20;4.92;;;;;;;23.32;55.04;100242.96;2874375;82;20993;-64
2021/08/25 13:26:51;;;;;;;10.93;4.90;;;;;;;23.38;56.22;100241.25;2859740;82;21111;-63
2021/08/25 13:31:12;;;;;;;6.85;4.30;;;;;;;23.43;54.26;100233.33;2851272;83;20977;-63
2021/08/25 13:35:14;;;;;;;8.70;4.35;;;;;;;23.56;56.29;100223.47;2874217;82;20997;-63
2021/08/25 13:39:16;;;;;;;5.08;4.17;;;;;;;23.57;55.76;100225.13;2874359;83;21005;-63
2021/08/25 13:43:17;;;;;;;8.53;4.12;;;;;;;23.59;54.45;100210.84;2872826;83;21056;-65
2021/08/25 13:47:19;;;;;;;8.40;3.55;;;;;;;23.58;55.58;100187.44;2871976;82;20966;-62
2021/08/25 13:51:25;;;;;;;7.92;3.83;;;;;;;23.74;55.25;100197.81;2874523;82;21052;-63
2021/08/25 13:55:27;;;;;;;8.53;4.80;;;;;;;23.85;55.38;100177.30;2854233;83;21011;-63
2021/08/25 13:59:29;;;;;;;8.25;4.28;;;;;;;23.93;53.95;100178.42;2871536;82;21020;-62
2021/08/25 14:03:31;;;;;;;6.60;3.62;;;;;;;23.83;54.54;100169.89;2857021;81;70879;-70
2021/08/25 14:07:33;;;;;;;6.58;4.17;;;;;;;23.73;54.73;100159.50;2849762;83;21092;-69
2021/08/25 14:11:35;;;;;;;6.87;4.15;;;;;;;23.77;55.58;100153.12;2849388;83;21019;-71
2021/08/25 14:15:37;;;;;;;5.95;3.85;;;;;;;23.92;55.78;100143.31;2848020;83;21638;-70
2021/08/25 14:23:58;;;;;;;5.00;3.47;;;;;;;23.81;53.45;100127.19;2848340;79;21063;-58
2021/08/25 14:28:01;;;;;;;7.87;4.90;;;;;;;23.82;53.60;100118.83;2835828;83;20963;-58
2021/08/25 14:32:04;;;;;;;6.33;4.00;;;;;;;23.85;54.07;100110.76;2862210;82;20998;-57
2021/08/25 14:36:08;;;;;;;4.92;3.55;;;;;;;23.85;54.47;100101.25;2864391;83;21022;-58
2021/08/25 14:40:13;;;;;;;5.00;2.70;;;;;;;23.78;53.92;100107.26;2865811;83;21035;-57
2021/08/25 14:44:22;;;;;;;10.58;3.05;;;;;;;23.60;53.66;100100.67;2836369;83;20999;-59
2021/08/25 14:48:24;;;;;;;6.92;3.67;;;;;;;23.61;55.64;100089.30;2819890;83;21318;-59
2021/08/25 14:52:26;;;;;;;6.40;3.77;;;;;;;23.71;54.31;100085.57;2819679;83;21002;-61
2021/08/25 14:56:40;;;;;;;3.85;2.83;;;;;;;23.68;55.01;100087.37;2819881;84;21015;-60
2021/08/25 15:00:41;;;;;;;10.82;4.72;;;;;;;23.76;55.64;100080.85;2855043;81;21073;-60
2021/08/25 15:04:45;;;;;;;2.75;2.52;;;;;;;23.78;54.13;100067.37;2865233;82;21128;-64
2021/08/25 15:09:22;;;;;;;6.67;2.92;;;;;;;23.82;54.69;100067.23;2858393;82;20948;-60
2021/08/25 15:13:24;;;;;;;3.92;2.47;;;;;;;23.93;54.82;100070.28;2868299;82;21054;-61
2021/08/25 15:17:48;;;;;;;5.08;2.95;;;;;;;24.00;54.31;100064.30;2868163;81;21074;-60
2021/08/25 15:21:53;;;;;;;6.87;3.17;;;;;;;24.04;53.33;100054.68;2868070;82;21260;-62
2021/08/25 15:25:56;;;;;;;3.37;2.27;;;;;;;23.92;52.29;100051.81;2857093;82;28451;-60
2021/08/25 15:30:05;;;;;;;7.30;3.72;;;;;;;23.86;52.31;100047.78;2853140;81;21052;-62
2021/08/25 15:34:07;;;;;;;9.15;3.62;;;;;;;23.84;52.95;100048.53;2853467;83;20989;-59
2021/08/25 15:38:09;;;;;;;5.90;2.98;;;;;;;23.88;52.25;100037.02;2853260;83;21033;-60
2021/08/25 15:42:13;;;;;;;4.40;2.50;;;;;;;23.75;51.82;100038.46;2896006;82;21262;-59
2021/08/25 15:46:15;;;;;;;4.28;2.52;;;;;;;23.53;53.12;100029.30;2861090;81;20957;-60
2021/08/25 15:50:17;;;;;;;2.67;2.10;;;;;;;23.31;52.90;100026.08;2892938;82;21016;-64
2021/08/25 15:54:21;;;;;;;3.65;2.30;;;;;;;23.11;54.39;100021.03;2901472;80;21003;-62
2021/08/25 15:58:29;;;;;;;2.90;2.37;;;;;;;22.92;54.21;100011.92;2900869;82;20991;-63
2021/08/25 16:02:33;;;;;;;6.35;2.75;;;;;;;22.76;54.95;100013.73;2901778;80;20983;-61
2021/08/25 16:07:19;;;;;;;6.83;4.12;;;;;;;22.65;53.87;100010.66;2880551;82;21033;-61
2021/08/25 16:11:22;;;;;;;4.25;2.62;;;;;;;22.66;54.49;100003.34;2902387;81;20986;-60
2021/08/25 16:15:35;;;;;;;2.45;1.95;;;;;;;22.62;54.12;99993.47;2902070;81;20959;-62
2021/08/25 16:19:38;;;;;;;3.12;2.12;;;;;;;22.56;54.59;99986.70;2902063;81;20939;-60
2021/08/25 16:23:41;;;;;;;9.58;2.72;;;;;;;22.40;54.88;99986.92;2912512;80;20992;-63
2021/08/25 16:27:43;;;;;;;5.70;3.50;;;;;;;22.18;55.96;99983.61;2898606;82;21110;-63
2021/08/25 16:31:50;;;;;;;6.47;2.80;;;;;;;22.02;56.64;99976.76;2885620;81;21029;-61
2021/08/25 16:35:52;;;;;;;4.12;2.77;;;;;;;21.91;56.73;99967.89;2856308;83;21259;-61
2021/08/25 16:39:57;;;;;;;4.87;2.85;;;;;;;21.82;57.73;99966.77;2860501;81;21067;-62
2021/08/25 16:44:00;;;;;;;6.80;2.50;;;;;;;21.76;58.70;99956.75;2876241;83;21005;-61
2021/08/25 16:48:02;;;;;;;4.62;2.80;;;;;;;21.67;57.96;99957.47;2876484;82;21071;-61
2021/08/25 16:52:06;;;;;;;6.62;3.30;;;;;;;21.60;58.77;99954.41;2848388;82;21077;-60
2021/08/25 16:56:38;;;;;;;12.58;3.17;;;;;;;21.50;59.26;99941.29;2843052;82;20909;-62
2021/08/25 17:00:42;;;;;;;2.90;2.27;;;;;;;21.43;59.63;99941.81;2839987;82;21011;-62
2021/08/25 17:05:03;;;;;;;6.17;2.60;;;;;;;21.38;59.58;99939.72;2842182;83;21019;-61
2021/08/25 17:09:04;;;;;;;4.28;2.87;;;;;;;21.36;60.07;99938.59;2829943;83;21023;-60
2021/08/25 17:13:12;;;;;;;6.10;2.65;;;;;;;21.31;60.07;99938.34;2876317;81;20997;-61
2021/08/25 17:17:18;;;;;;;4.95;2.85;;;;;;;21.25;60.05;99930.55;2880695;82;21072;-61
2021/08/25 17:21:21;;;;;;;4.67;3.47;;;;;;;21.14;60.05;99920.33;2818786;83;20958;-61
2021/08/25 17:25:23;;;;;;;7.20;3.67;;;;;;;21.04;60.26;99919.90;2862263;81;21030;-61
2021/08/25 17:29:32;;;;;;;4.03;2.98;;;;;;;20.97;60.18;99922.05;2895320;82;20988;-61
2021/08/25 17:33:35;;;;;;;6.15;3.58;;;;;;;20.86;59.71;99909.64;2862139;82;21242;-60
2021/08/25 17:37:41;;;;;;;22.00;4.12;;;;;;;20.69;59.72;99905.91;2874853;82;20955;-60
2021/08/25 17:42:19;;;;;;;5.45;3.42;;;;;;;20.62;60.38;99907.23;2911625;81;21309;-60
2021/08/25 17:46:24;;;;;;;9.38;3.90;;;;;;;20.53;60.93;99911.15;2912209;82;21268;-60
2021/08/25 17:50:28;;;;;;;6.20;3.47;;;;;;;20.44;61.52;99913.69;2911526;82;21030;-60
2021/08/25 17:54:31;;;;;;;7.83;3.02;;;;;;;20.39;61.76;99908.91;2910903;82;20992;-59
2021/08/25 18:02:42;;;;;;;6.72;3.20;;;;;;;20.25;62.37;99894.50;2883325;80;21138;-68
2021/08/25 18:06:43;;;;;;;6.33;3.85;;;;;;;20.20;62.79;99898.30;2906420;78;21047;-67
2021/08/25 18:19:32;;;;;;;7.95;4.78;;;;;;;20.01;63.32;99890.41;2974080;78;21085;-60
2021/08/25 18:23:34;;;;;;;5.28;4.17;;;;;;;19.93;63.51;99895.44;2963338;80;20976;-59
2021/08/25 18:44:35;;;;;;;11.33;6.22;;;;;;;19.70;65.34;99885.16;2897623;80;21097;-71
2021/08/25 18:48:37;;;;;;;5.75;4.15;;;;;;;19.61;65.37;99879.61;2973067;80;21042;-78
2021/08/25 18:52:39;;;;;;;8.95;3.85;;;;;;;19.57;65.44;99882.38;2973401;79;21101;-68
2021/08/25 18:56:41;;;;;;;6.20;4.30;;;;;;;19.48;65.66;99872.25;2968796;80;21059;-72
2021/08/25 19:00:43;;;;;;;9.88;4.20;;;;;;;19.42;65.86;99868.95;2893202;81;21003;-72
2021/08/25 19:04:45;;;;;;;12.70;5.35;;;;;;;19.35;66.46;99870.24;2891583;82;21066;-74
2021/08/25 19:08:47;;;;;;;8.20;4.78;;;;;;;19.34;66.62;99863.71;2891588;82;21007;-76
2021/08/25 19:12:49;;;;;;;7.33;3.55;;;;;;;19.30;67.10;99861.09;2943542;79;20960;-72
2021/08/25 19:16:53;;;;;;;6.33;3.40;;;;;;;19.22;66.89;99856.13;2974548;79;21045;-75
2021/08/25 19:20:54;;;;;;;4.47;2.98;;;;;;;19.18;66.91;99851.34;2944098;79;20967;-75
2021/08/25 19:24:57;;;;;;;5.87;3.87;;;;;;;19.11;66.61;99848.05;2951839;80;21018;-72
2021/08/25 19:28:59;;;;;;;5.15;3.08;;;;;;;19.08;66.53;99847.09;2937546;80;20975;-69
2021/08/25 19:33:02;;;;;;;6.97;4.05;;;;;;;19.02;66.84;99834.89;2946170;79;21046;-74
2021/08/25 19:37:04;;;;;;;6.53;3.65;;;;;;;18.98;67.27;99833.94;2908481;81;21046;-74
2021/08/25 19:41:08;;;;;;;6.80;4.47;;;;;;;18.93;67.62;99832.30;2891657;82;20983;-70
2021/08/25 19:45:15;;;;;;;6.00;3.12;;;;;;;18.87;67.75;99826.34;2915092;81;21070;-70
2021/08/25 19:49:15;;;;;;;9.53;3.52;;;;;;;18.81;67.72;99824.40;2919446;81;21088;-72
2021/08/25 19:53:16;;;;;;;7.12;4.00;;;;;;;18.77;67.61;99813.69;2920491;81;21246;-70
2021/08/25 20:01:28;;;;;;;10.13;3.72;;;;;;;18.68;67.36;99800.84;2981585;78;21084;-60
2021/08/25 20:05:31;;;;;;;6.25;3.90;;;;;;;18.67;67.48;99792.45;2980936;80;21016;-60
2021/08/25 20:09:34;;;;;;;4.97;4.12;;;;;;;18.65;67.37;99795.32;2971358;80;21041;-60
2021/08/25 20:13:36;;;;;;;7.12;4.22;;;;;;;18.66;67.45;99789.44;2919326;81;20985;-61
2021/08/25 20:17:39;;;;;;;6.20;4.78;;;;;;;18.65;67.97;99783.20;2916468;81;20953;-61
2021/08/25 20:21:41;;;;;;;3.65;2.65;;;;;;;18.64;67.74;99773.45;2918948;80;21022;-62
2021/08/25 20:25:43;;;;;;;7.30;3.33;;;;;;;18.64;68.10;99768.06;2921176;79;72042;-74
2021/08/25 20:29:45;;;;;;;10.80;3.58;;;;;;;18.64;67.93;99750.55;2959560;79;21077;-73
2021/08/25 20:42:03;;;;;;;6.87;3.83;;;;;;;18.68;66.88;99734.36;2839733;83;21102;-68
2021/08/25 20:46:04;;;;;;;6.37;3.45;;;;;;;18.65;66.34;99728.52;2905080;81;20999;-76